Time;durP1;ratioP1;P1;durP2;ratioP2;P2;SDS_P1;SDS_P2;PMS_P1;PMS_P2;Temp;Humidity;BMP_temperature;BMP_pressure;BME280_temperature;BME280_humidity;BME280_pressure;Samples;Min_cycle;Max_cycle;Signal;HPM_P1;HPM_P2
2022/05/11 00:01:16;;;;;;;5.27;2.93;;;;;;;;;;5053424;28;20391;-76
2022/05/11 00:03:42;;;;;;;4.30;3.03;;;;;;;;;;5053449;28;20428;-77
2022/05/11 00:06:08;;;;;;;4.70;2.90;;;;;;;;;;5053867;28;20436;-76
2022/05/11 00:08:34;;;;;;;5.37;3.80;;;;;;;;;;5053703;28;20435;-76
2022/05/11 00:11:01;;;;;;;5.43;3.07;;;;;;;;;;5053323;28;20407;-76
2022/05/11 00:13:28;;;;;;;3.90;3.47;;;;;;;;;;5053250;28;20409;-76
2022/05/11 00:15:54;;;;;;;4.17;2.80;;;;;;;;;;5053629;28;20404;-76
2022/05/11 00:18:20;;;;;;;4.20;3.00;;;;;;;;;;5053556;28;20905;-75
2022/05/11 00:20:46;;;;;;;5.23;3.10;;;;;;;;;;5053209;28;20431;-76
2022/05/11 00:23:12;;;;;;;3.80;3.20;;;;;;;;;;5052865;28;20428;-77
2022/05/11 00:25:38;;;;;;;4.10;2.87;;;;;;;;;;5053423;28;20837;-75
2022/05/11 00:28:04;;;;;;;5.70;3.00;;;;;;;;;;5053675;28;20465;-75
2022/05/11 00:30:31;;;;;;;4.57;3.00;;;;;;;;;;5051907;28;20527;-76
2022/05/11 00:32:58;;;;;;;4.70;2.90;;;;;;;;;;5052102;28;20451;-76
2022/05/11 00:35:24;;;;;;;6.27;3.17;;;;;;;;;;5052480;28;20525;-76
2022/05/11 00:37:50;;;;;;;5.00;3.50;;;;;;;;;;5052858;28;20846;-77
2022/05/11 00:40:17;;;;;;;6.20;3.50;;;;;;;;;;5052472;28;20454;-76
2022/05/11 00:42:43;;;;;;;4.27;3.13;;;;;;;;;;5052366;28;20424;-77
2022/05/11 00:45:10;;;;;;;3.60;3.17;;;;;;;;;;5052075;28;20963;-76
2022/05/11 00:47:41;;;;;;;4.57;2.90;;;;;;;;;;5052758;28;20463;-77
2022/05/11 00:50:09;;;;;;;7.00;3.90;;;;;;;;;;5052019;28;20508;-76
2022/05/11 00:52:35;;;;;;;5.47;3.90;;;;;;;;;;5052393;28;20466;-76
2022/05/11 00:55:03;;;;;;;8.30;3.70;;;;;;;;;;5051777;28;20477;-75
2022/05/11 00:57:31;;;;;;;12.60;3.50;;;;;;;;;;5052241;28;20408;-75
2022/05/11 00:59:57;;;;;;;6.07;3.63;;;;;;;;;;5051979;28;20459;-75
2022/05/11 01:02:23;;;;;;;3.83;3.40;;;;;;;;;;5052987;28;20431;-75
2022/05/11 01:04:51;;;;;;;3.73;2.87;;;;;;;;;;5052289;28;20490;-76
2022/05/11 01:07:17;;;;;;;7.03;3.40;;;;;;;;;;5052145;28;20738;-76
2022/05/11 01:09:43;;;;;;;4.60;3.30;;;;;;;;;;5051872;28;20387;-76
2022/05/11 01:12:14;;;;;;;7.27;3.33;;;;;;;;;;5052215;28;20395;-75
2022/05/11 01:14:42;;;;;;;7.37;3.53;;;;;;;;;;5051538;28;20460;-75
2022/05/11 01:17:08;;;;;;;6.43;3.57;;;;;;;;;;5051953;28;20432;-76
2022/05/11 01:19:35;;;;;;;4.47;3.40;;;;;;;;;;5051973;28;20453;-76
2022/05/11 01:22:12;;;;;;;10.07;4.20;;;;;;;;;;5032109;28;20406;-75
2022/05/11 01:24:40;;;;;;;4.50;3.70;;;;;;;;;;5033255;28;20481;-77
2022/05/11 01:27:25;;;;;;;5.13;3.27;;;;;;;;;;5051881;28;20405;-76
2022/05/11 01:29:51;;;;;;;6.10;3.33;;;;;;;;;;5014441;28;1080456;-75
2022/05/11 01:32:18;;;;;;;4.27;3.20;;;;;;;;;;5052638;28;20236;-76
2022/05/11 01:34:44;;;;;;;5.57;3.27;;;;;;;;;;5052165;28;20407;-75
2022/05/11 01:37:10;;;;;;;5.50;3.37;;;;;;;;;;5052539;28;20497;-75
2022/05/11 01:39:36;;;;;;;3.43;3.07;;;;;;;;;;5034638;28;20435;-76
2022/05/11 01:42:02;;;;;;;5.97;3.37;;;;;;;;;;5052470;28;20909;-75
2022/05/11 01:44:28;;;;;;;6.13;3.53;;;;;;;;;;5052103;28;20399;-75
2022/05/11 01:46:56;;;;;;;5.80;3.90;;;;;;;;;;5034887;28;20910;-75
2022/05/11 01:49:24;;;;;;;4.30;3.30;;;;;;;;;;5052446;28;20441;-75
2022/05/11 01:51:50;;;;;;;6.43;4.00;;;;;;;;;;5034473;28;20552;-76
2022/05/11 01:54:16;;;;;;;5.17;3.67;;;;;;;;;;5052035;28;20843;-76
2022/05/11 01:56:42;;;;;;;5.00;4.10;;;;;;;;;;5052674;28;20383;-75
2022/05/11 01:59:08;;;;;;;5.83;3.83;;;;;;;;;;5052469;28;20409;-76
2022/05/11 02:01:35;;;;;;;4.87;3.83;;;;;;;;;;5052312;28;20516;-75
2022/05/11 02:04:01;;;;;;;5.37;3.47;;;;;;;;;;5054697;28;20444;-75
2022/05/11 02:09:12;;;;;;;6.00;3.83;;;;;;;;;;5036519;28;20809;-75
2022/05/11 02:11:39;;;;;;;7.93;4.10;;;;;;;;;;5032721;28;20452;-76
2022/05/11 02:14:05;;;;;;;7.50;4.00;;;;;;;;;;5055411;28;20936;-75
2022/05/11 02:16:32;;;;;;;6.50;3.30;;;;;;;;;;5055890;28;20754;-76
2022/05/11 02:18:58;;;;;;;5.40;3.97;;;;;;;;;;5038203;28;20393;-76
2022/05/11 02:21:24;;;;;;;7.60;3.70;;;;;;;;;;5043681;28;20917;-76
2022/05/11 02:23:51;;;;;;;5.40;3.93;;;;;;;;;;5035245;28;20896;-75
2022/05/11 02:26:19;;;;;;;7.07;3.93;;;;;;;;;;5018455;28;20807;-76
2022/05/11 02:28:45;;;;;;;5.10;3.60;;;;;;;;;;5035756;28;20433;-76
2022/05/11 02:31:11;;;;;;;5.73;4.10;;;;;;;;;;5044319;28;20768;-75
2022/05/11 02:33:37;;;;;;;6.03;3.83;;;;;;;;;;5055082;28;20432;-75
2022/05/11 02:36:03;;;;;;;8.20;4.47;;;;;;;;;;5055360;28;20882;-75
2022/05/11 02:38:33;;;;;;;6.60;3.77;;;;;;;;;;5055401;28;20387;-75
2022/05/11 02:40:59;;;;;;;7.57;5.17;;;;;;;;;;5055315;28;20449;-76
2022/05/11 02:43:26;;;;;;;6.40;4.97;;;;;;;;;;5054970;28;20391;-76
2022/05/11 02:45:52;;;;;;;4.57;3.90;;;;;;;;;;5055567;28;20404;-76
2022/05/11 02:48:20;;;;;;;6.20;4.43;;;;;;;;;;5055476;28;20439;-76
2022/05/11 02:50:48;;;;;;;10.70;4.70;;;;;;;;;;5055305;28;20936;-75
2022/05/11 02:53:14;;;;;;;8.23;4.60;;;;;;;;;;5054761;28;20388;-75
2022/05/11 02:55:42;;;;;;;10.10;4.63;;;;;;;;;;5055206;28;20453;-76
2022/05/11 02:58:08;;;;;;;5.37;4.63;;;;;;;;;;5055038;28;20792;-75
2022/05/11 03:00:35;;;;;;;7.40;5.33;;;;;;;;;;5054808;28;20448;-75
2022/05/11 03:03:02;;;;;;;6.83;5.17;;;;;;;;;;5054560;28;20404;-76
2022/05/11 03:05:28;;;;;;;7.53;5.20;;;;;;;;;;5053567;28;20407;-75
2022/05/11 03:07:54;;;;;;;6.80;4.70;;;;;;;;;;5037210;28;20478;-76
2022/05/11 03:10:20;;;;;;;6.53;5.37;;;;;;;;;;5054515;28;20428;-75
2022/05/11 03:12:46;;;;;;;11.30;5.30;;;;;;;;;;5054905;28;20405;-75
2022/05/11 03:15:12;;;;;;;8.13;5.50;;;;;;;;;;5054492;28;20502;-75
2022/05/11 03:17:39;;;;;;;8.80;6.27;;;;;;;;;;5036587;28;20950;-76
2022/05/11 03:20:05;;;;;;;10.23;5.50;;;;;;;;;;5054820;28;20525;-76
2022/05/11 03:22:31;;;;;;;9.03;5.80;;;;;;;;;;5054660;28;20387;-77
2022/05/11 03:24:57;;;;;;;7.97;6.03;;;;;;;;;;5054211;28;20439;-76
2022/05/11 03:27:23;;;;;;;6.40;5.70;;;;;;;;;;5054238;28;20424;-76
2022/05/11 03:29:51;;;;;;;7.20;6.10;;;;;;;;;;5064009;28;20443;-75
2022/05/11 03:35:02;;;;;;;9.13;6.60;;;;;;;;;;5054200;28;20437;-76
2022/05/11 03:37:28;;;;;;;5.87;5.27;;;;;;;;;;5054064;28;20435;-76
2022/05/11 03:39:54;;;;;;;7.50;5.70;;;;;;;;;;5054316;28;20876;-75
2022/05/11 03:42:22;;;;;;;7.70;6.03;;;;;;;;;;5054401;28;20409;-75
2022/05/11 03:44:48;;;;;;;6.50;5.33;;;;;;;;;;5053745;28;20541;-77
2022/05/11 03:47:14;;;;;;;7.37;5.50;;;;;;;;;;5054240;28;20424;-77
2022/05/11 03:49:40;;;;;;;8.93;6.23;;;;;;;;;;5054141;28;20408;-75
2022/05/11 03:52:06;;;;;;;6.63;5.43;;;;;;;;;;5054423;28;20493;-76
2022/05/11 03:54:33;;;;;;;13.53;6.53;;;;;;;;;;5053543;28;20436;-75
2022/05/11 03:56:59;;;;;;;6.80;5.70;;;;;;;;;;5054182;28;20919;-76
2022/05/11 03:59:25;;;;;;;6.60;5.30;;;;;;;;;;5053914;28;20467;-75
2022/05/11 04:01:50;;;;;;;10.30;6.00;;;;;;;;;;5054106;28;20894;-75
2022/05/11 04:04:16;;;;;;;8.13;5.40;;;;;;;;;;5052465;28;20423;-74
2022/05/11 04:06:43;;;;;;;6.57;5.63;;;;;;;;;;5053860;28;20412;-76
2022/05/11 04:09:09;;;;;;;10.40;6.20;;;;;;;;;;5069218;28;20425;-76
2022/05/11 04:11:36;;;;;;;8.60;6.30;;;;;;;;;;5053662;28;20466;-75
2022/05/11 04:14:02;;;;;;;7.47;6.33;;;;;;;;;;5053212;28;20519;-76
2022/05/11 04:16:28;;;;;;;9.03;7.03;;;;;;;;;;5052555;28;20405;-75
2022/05/11 04:18:54;;;;;;;18.20;8.37;;;;;;;;;;5052797;28;20427;-76
2022/05/11 04:21:21;;;;;;;7.93;6.03;;;;;;;;;;5053369;28;20424;-75
2022/05/11 04:23:47;;;;;;;8.83;6.40;;;;;;;;;;5052777;28;20432;-76
2022/05/11 04:26:14;;;;;;;8.03;5.70;;;;;;;;;;5052305;28;20474;-77
2022/05/11 04:28:43;;;;;;;8.93;6.47;;;;;;;;;;5051773;28;20528;-75
2022/05/11 04:31:10;;;;;;;8.00;7.07;;;;;;;;;;5053087;28;20376;-75
2022/05/11 04:33:36;;;;;;;7.93;7.10;;;;;;;;;;5052692;28;20577;-76
2022/05/11 04:36:05;;;;;;;8.23;6.50;;;;;;;;;;5052843;28;20894;-76
2022/05/11 04:38:32;;;;;;;10.33;6.80;;;;;;;;;;5051704;28;20423;-75
2022/05/11 04:40:58;;;;;;;14.63;7.10;;;;;;;;;;5052510;28;20453;-75
2022/05/11 04:43:24;;;;;;;16.50;7.20;;;;;;;;;;5052466;28;20767;-76
2022/05/11 04:45:50;;;;;;;18.57;7.43;;;;;;;;;;5051969;28;20424;-76
2022/05/11 04:48:17;;;;;;;9.83;7.47;;;;;;;;;;5052908;28;20382;-75
2022/05/11 04:50:44;;;;;;;9.03;6.90;;;;;;;;;;5052684;28;20871;-75
2022/05/11 04:53:11;;;;;;;27.20;7.70;;;;;;;;;;5052303;28;20765;-76
2022/05/11 04:55:37;;;;;;;8.33;7.27;;;;;;;;;;5053008;28;20471;-75
2022/05/11 04:58:04;;;;;;;10.77;7.00;;;;;;;;;;5052919;28;20383;-76
2022/05/11 05:00:30;;;;;;;12.77;7.70;;;;;;;;;;5051001;28;20439;-76
2022/05/11 05:02:56;;;;;;;10.60;6.87;;;;;;;;;;5067853;28;20417;-76
2022/05/11 05:05:22;;;;;;;12.00;7.80;;;;;;;;;;5051355;28;20456;-77
2022/05/11 05:07:48;;;;;;;9.17;6.90;;;;;;;;;;5052719;28;20448;-75
2022/05/11 05:10:15;;;;;;;9.10;7.97;;;;;;;;;;5052368;28;20427;-75
2022/05/11 05:12:41;;;;;;;14.00;7.80;;;;;;;;;;5052510;28;20391;-76
2022/05/11 05:15:08;;;;;;;10.93;8.33;;;;;;;;;;5052185;28;20503;-76
2022/05/11 05:17:34;;;;;;;12.77;8.43;;;;;;;;;;5052555;28;20870;-74
2022/05/11 05:20:00;;;;;;;12.83;9.90;;;;;;;;;;5052536;28;20605;-77
2022/05/11 05:22:26;;;;;;;10.83;9.60;;;;;;;;;;5052460;28;20893;-75
2022/05/11 05:24:52;;;;;;;11.13;8.60;;;;;;;;;;5051940;28;20964;-76
2022/05/11 05:27:19;;;;;;;11.07;9.00;;;;;;;;;;5052137;28;20467;-76
2022/05/11 05:32:37;;;;;;;13.90;9.33;;;;;;;;;;5032764;28;20412;-76
2022/05/11 05:35:04;;;;;;;14.67;9.03;;;;;;;;;;5032035;28;20462;-75
2022/05/11 05:37:30;;;;;;;12.90;9.33;;;;;;;;;;5032737;28;20516;-76
2022/05/11 05:39:56;;;;;;;13.37;9.43;;;;;;;;;;5036049;28;20560;-76
2022/05/11 05:42:23;;;;;;;16.40;11.70;;;;;;;;;;5055410;28;20795;-75
2022/05/11 05:44:50;;;;;;;11.83;9.73;;;;;;;;;;5056063;28;20474;-76
2022/05/11 05:47:16;;;;;;;12.70;9.43;;;;;;;;;;5056144;28;20408;-75
2022/05/11 05:49:42;;;;;;;12.37;9.60;;;;;;;;;;5056015;28;20416;-75
2022/05/11 05:52:14;;;;;;;13.33;10.00;;;;;;;;;;5055764;28;20468;-75
2022/05/11 05:54:40;;;;;;;14.13;9.23;;;;;;;;;;5055869;28;20438;-76
2022/05/11 05:57:06;;;;;;;15.20;8.90;;;;;;;;;;5056066;28;20430;-75
2022/05/11 05:59:32;;;;;;;15.20;8.80;;;;;;;;;;5055738;28;20514;-76
2022/05/11 06:01:58;;;;;;;9.53;8.63;;;;;;;;;;5055733;28;20819;-76
2022/05/11 06:04:24;;;;;;;9.93;8.93;;;;;;;;;;5055317;28;20515;-75
2022/05/11 06:06:50;;;;;;;19.17;9.27;;;;;;;;;;5055961;28;20806;-75
2022/05/11 06:09:16;;;;;;;17.17;9.73;;;;;;;;;;5055663;28;20432;-77
2022/05/11 06:11:42;;;;;;;11.30;9.00;;;;;;;;;;5055876;28;20387;-76
2022/05/11 06:14:09;;;;;;;13.27;9.60;;;;;;;;;;5055322;28;20490;-75
2022/05/11 06:16:34;;;;;;;10.17;8.60;;;;;;;;;;5055608;28;20390;-77
2022/05/11 06:19:00;;;;;;;9.87;8.87;;;;;;;;;;5055270;28;20939;-75
2022/05/11 06:21:27;;;;;;;12.20;9.57;;;;;;;;;;5054230;28;20495;-76
2022/05/11 06:23:53;;;;;;;10.37;8.10;;;;;;;;;;5055075;28;20520;-75
2022/05/11 06:26:19;;;;;;;12.00;7.43;;;;;;;;;;5055294;28;20416;-76
2022/05/11 06:28:46;;;;;;;14.63;8.13;;;;;;;;;;5055267;28;20399;-76
2022/05/11 06:31:12;;;;;;;12.07;9.43;;;;;;;;;;5055189;28;20417;-76
2022/05/11 06:33:38;;;;;;;13.17;7.87;;;;;;;;;;5036785;28;20490;-75
2022/05/11 06:36:05;;;;;;;14.50;8.40;;;;;;;;;;5054468;28;20403;-75
2022/05/11 06:38:31;;;;;;;11.33;7.47;;;;;;;;;;5047061;28;20417;-76
2022/05/11 06:41:05;;;;;;;8.53;7.20;;;;;;;;;;5053436;28;20468;-77
2022/05/11 06:43:31;;;;;;;8.43;6.80;;;;;;;;;;5055914;28;20408;-76
2022/05/11 06:45:57;;;;;;;13.93;7.27;;;;;;;;;;5054981;28;20441;-77
2022/05/11 06:48:23;;;;;;;9.67;6.57;;;;;;;;;;5053980;28;20755;-78
2022/05/11 06:50:50;;;;;;;9.80;6.40;;;;;;;;;;5054585;28;20440;-76
2022/05/11 06:53:16;;;;;;;16.40;6.17;;;;;;;;;;5053806;28;20396;-78
2022/05/11 07:01:12;;;;;;;12.07;5.27;;;;;;;;;;5055074;28;20442;-77
2022/05/11 07:03:39;;;;;;;8.40;5.87;;;;;;;;;;5054003;28;20843;-77
2022/05/11 07:06:05;;;;;;;10.43;4.30;;;;;;;;;;5054777;28;20428;-77
2022/05/11 07:08:41;;;;;;;4.47;3.20;;;;;;;;;;5054789;28;20375;-77
2022/05/11 07:13:55;;;;;;;5.83;3.27;;;;;;;;;;5054479;28;20413;-78
2022/05/11 07:16:23;;;;;;;4.90;3.30;;;;;;;;;;5054537;28;20408;-75
2022/05/11 07:18:49;;;;;;;7.50;3.40;;;;;;;;;;5054829;28;20387;-77
2022/05/11 07:21:15;;;;;;;5.37;3.97;;;;;;;;;;5054365;28;20467;-77
2022/05/11 07:23:41;;;;;;;8.50;3.47;;;;;;;;;;5053937;28;20471;-77
2022/05/11 07:26:07;;;;;;;5.93;3.80;;;;;;;;;;5054411;28;20432;-77
2022/05/11 07:28:33;;;;;;;7.70;3.53;;;;;;;;;;5054259;28;20428;-77
2022/05/11 07:31:00;;;;;;;5.23;3.50;;;;;;;;;;5054243;28;20899;-77
2022/05/11 07:33:28;;;;;;;7.90;3.57;;;;;;;;;;5053927;28;20432;-77
2022/05/11 07:35:54;;;;;;;9.23;4.00;;;;;;;;;;5054305;28;20803;-77
2022/05/11 07:38:20;;;;;;;5.13;3.90;;;;;;;;;;5053997;28;20428;-78
2022/05/11 07:40:46;;;;;;;9.33;3.90;;;;;;;;;;5054007;28;20832;-77
2022/05/11 07:43:13;;;;;;;8.57;4.03;;;;;;;;;;5053608;28;20423;-77
2022/05/11 07:45:40;;;;;;;12.50;4.10;;;;;;;;;;5053976;28;20408;-77
2022/05/11 07:48:06;;;;;;;11.27;4.83;;;;;;;;;;5053979;28;20826;-78
2022/05/11 07:50:32;;;;;;;7.53;3.57;;;;;;;;;;5052707;28;20770;-76
2022/05/11 07:52:59;;;;;;;6.90;3.90;;;;;;;;;;5053575;28;20491;-77
2022/05/11 07:55:25;;;;;;;5.00;4.23;;;;;;;;;;5054037;28;20827;-77
2022/05/11 08:00:37;;;;;;;8.10;4.30;;;;;;;;;;5052970;28;20455;-76
2022/05/11 08:03:03;;;;;;;11.83;4.30;;;;;;;;;;5053265;28;20868;-77
2022/05/11 08:05:30;;;;;;;10.70;4.30;;;;;;;;;;5053468;28;20478;-77
2022/05/11 08:07:58;;;;;;;15.23;4.97;;;;;;;;;;5053657;28;20470;-78
2022/05/11 08:10:31;;;;;;;6.23;4.30;;;;;;;;;;5053527;28;20815;-77
2022/05/11 08:12:58;;;;;;;8.33;4.00;;;;;;;;;;5053479;28;20408;-77
2022/05/11 08:15:25;;;;;;;10.20;4.57;;;;;;;;;;5053505;28;20433;-78
2022/05/11 08:17:51;;;;;;;7.70;3.80;;;;;;;;;;5053531;28;20877;-77
2022/05/11 08:20:22;;;;;;;5.93;4.13;;;;;;;;;;5035735;28;20499;-78
2022/05/11 08:22:48;;;;;;;6.30;4.30;;;;;;;;;;5051989;28;20596;-79
2022/05/11 08:25:15;;;;;;;10.53;5.00;;;;;;;;;;5053055;28;20442;-77
2022/05/11 08:27:42;;;;;;;8.60;3.93;;;;;;;;;;5053579;28;20473;-80
2022/05/11 08:35:38;;;;;;;7.37;4.67;;;;;;;;;;5052503;28;20466;-78
2022/05/11 08:38:04;;;;;;;9.03;3.90;;;;;;;;;;5052634;28;20412;-77
2022/05/11 08:40:37;;;;;;;10.27;4.67;;;;;;;;;;5052347;28;20444;-76
2022/05/11 08:43:03;;;;;;;5.27;4.20;;;;;;;;;;5052691;28;20447;-76
2022/05/11 08:45:35;;;;;;;4.10;3.70;;;;;;;;;;5052974;28;20444;-77
2022/05/11 08:48:07;;;;;;;6.83;4.73;;;;;;;;;;5035178;28;20497;-78
2022/05/11 08:50:36;;;;;;;7.30;4.43;;;;;;;;;;5052630;28;20413;-78
2022/05/11 08:53:04;;;;;;;8.13;4.67;;;;;;;;;;5052312;28;20419;-78
2022/05/11 08:55:37;;;;;;;5.70;4.10;;;;;;;;;;5052453;28;20445;-78
2022/05/11 08:58:06;;;;;;;7.40;4.00;;;;;;;;;;5052952;28;20412;-77
2022/05/11 09:00:33;;;;;;;4.73;4.33;;;;;;;;;;5052731;28;20458;-77
2022/05/11 09:03:03;;;;;;;5.20;3.70;;;;;;;;;;5052661;28;20813;-77
2022/05/11 09:05:31;;;;;;;11.00;4.50;;;;;;;;;;5052971;28;20791;-76
2022/05/11 09:07:58;;;;;;;5.00;4.20;;;;;;;;;;5052822;28;21010;-76
2022/05/11 09:10:29;;;;;;;7.80;4.23;;;;;;;;;;5052889;28;20901;-75
2022/05/11 09:12:57;;;;;;;4.37;3.97;;;;;;;;;;5057576;28;20776;-75
2022/05/11 09:15:24;;;;;;;7.00;4.60;;;;;;;;;;5059357;28;20538;-76
2022/05/11 09:17:50;;;;;;;3.87;3.40;;;;;;;;;;5059254;28;20418;-76
2022/05/11 09:20:17;;;;;;;4.80;3.60;;;;;;;;;;5059273;28;20970;-76
2022/05/11 09:22:53;;;;;;;5.50;4.00;;;;;;;;;;5058688;28;20485;-76
2022/05/11 09:25:26;;;;;;;3.93;3.53;;;;;;;;;;5048974;28;20791;-76
2022/05/11 09:27:53;;;;;;;7.70;4.00;;;;;;;;;;5057038;28;20404;-76
2022/05/11 09:30:20;;;;;;;8.17;3.93;;;;;;;;;;5059019;28;20428;-76
2022/05/11 09:32:47;;;;;;;6.30;3.60;;;;;;;;;;5059115;28;20419;-78
2022/05/11 09:35:18;;;;;;;6.17;3.90;;;;;;;;;;5058631;28;20578;-76
2022/05/11 09:37:46;;;;;;;8.43;4.53;;;;;;;;;;5059116;28;20442;-76
2022/05/11 09:40:12;;;;;;;6.20;4.10;;;;;;;;;;5058389;28;20458;-77
2022/05/11 09:42:48;;;;;;;6.43;3.20;;;;;;;;;;5058619;28;20492;-76
2022/05/11 09:45:34;;;;;;;5.80;3.80;;;;;;;;;;5055714;28;20733;-76
2022/05/11 09:48:02;;;;;;;5.90;4.37;;;;;;;;;;5057016;28;20409;-78
2022/05/11 09:50:29;;;;;;;5.30;3.93;;;;;;;;;;5058795;28;20410;-76
2022/05/11 09:52:58;;;;;;;6.97;4.57;;;;;;;;;;5040861;28;20780;-76
2022/05/11 09:55:26;;;;;;;5.80;4.00;;;;;;;;;;5058918;28;20511;-76
2022/05/11 09:57:53;;;;;;;5.30;4.10;;;;;;;;;;5059380;28;20405;-76
2022/05/11 10:00:33;;;;;;;6.50;4.30;;;;;;;;;;5040927;28;20952;-76
2022/05/11 10:03:02;;;;;;;5.37;4.00;;;;;;;;;;5058474;28;20429;-76
2022/05/11 10:05:31;;;;;;;6.30;4.33;;;;;;;;;;5058279;28;20421;-75
2022/05/11 10:08:03;;;;;;;5.10;4.10;;;;;;;;;;5058760;28;20465;-76
2022/05/11 10:10:34;;;;;;;8.10;4.27;;;;;;;;;;5058735;28;20915;-76
2022/05/11 10:13:20;;;;;;;7.90;4.00;;;;;;;;;;5058607;28;20407;-75
2022/05/11 10:24:20;;;;;;;10.33;3.60;;;;;;;;;;5055709;28;20459;-76
2022/05/11 10:26:50;;;;;;;5.77;3.70;;;;;;;;;;5055458;28;20432;-75
2022/05/11 10:29:36;;;;;;;16.63;3.90;;;;;;;;;;5055366;28;20432;-76
2022/05/11 10:32:18;;;;;;;5.93;3.53;;;;;;;;;;5024387;28;20436;-75
2022/05/11 10:34:55;;;;;;;6.10;4.07;;;;;;;;;;5055033;28;20427;-75
2022/05/11 10:37:30;;;;;;;4.70;3.93;;;;;;;;;;5055289;28;20415;-77
2022/05/11 10:39:59;;;;;;;5.10;3.40;;;;;;;;;;5054935;28;20464;-76
2022/05/11 10:42:34;;;;;;;9.50;3.63;;;;;;;;;;5054894;28;20397;-76
2022/05/11 10:45:09;;;;;;;4.07;3.10;;;;;;;;;;5052305;28;20421;-77
2022/05/11 10:47:45;;;;;;;7.17;3.03;;;;;;;;;;5051914;28;20403;-76
2022/05/11 10:50:23;;;;;;;7.80;3.47;;;;;;;;;;5036793;28;20486;-76
2022/05/11 10:52:58;;;;;;;5.30;3.50;;;;;;;;;;5054719;28;20818;-76
2022/05/11 10:55:43;;;;;;;8.53;3.87;;;;;;;;;;5053035;28;20788;-76
2022/05/11 10:58:35;;;;;;;6.10;3.50;;;;;;;;;;5035002;28;20878;-76
2022/05/11 11:01:11;;;;;;;6.00;3.03;;;;;;;;;;5004867;28;20478;-77
2022/05/11 11:03:53;;;;;;;6.10;3.20;;;;;;;;;;5034771;28;20427;-77
2022/05/11 11:09:08;;;;;;;5.40;3.90;;;;;;;;;;5034764;28;20397;-76
2022/05/11 11:11:40;;;;;;;5.93;2.97;;;;;;;;;;5034883;28;20396;-76
2022/05/11 11:14:09;;;;;;;7.60;3.57;;;;;;;;;;5034237;28;20427;-76
2022/05/11 11:16:37;;;;;;;6.60;3.33;;;;;;;;;;5017009;28;20417;-76
2022/05/11 11:19:08;;;;;;;4.90;3.10;;;;;;;;;;5016963;28;20411;-77
2022/05/11 11:21:34;;;;;;;7.77;3.83;;;;;;;;;;5034598;28;20832;-76
2022/05/11 11:24:12;;;;;;;6.57;3.03;;;;;;;;;;5033986;28;20426;-77
2022/05/11 11:26:48;;;;;;;4.43;3.17;;;;;;;;;;5034515;28;20769;-76
2022/05/11 11:29:15;;;;;;;5.37;3.50;;;;;;;;;;5034440;28;20926;-75
2022/05/11 11:31:59;;;;;;;5.30;3.53;;;;;;;;;;5016517;28;20466;-75
2022/05/11 11:34:32;;;;;;;6.10;3.67;;;;;;;;;;5033723;28;20441;-75
2022/05/11 11:36:59;;;;;;;7.03;2.97;;;;;;;;;;5015919;28;20404;-76
2022/05/11 11:39:44;;;;;;;5.10;3.47;;;;;;;;;;5034114;28;20440;-76
2022/05/11 11:42:11;;;;;;;4.67;3.37;;;;;;;;;;5034035;28;20408;-76
2022/05/11 11:44:41;;;;;;;4.40;3.20;;;;;;;;;;5033739;28;20429;-75
2022/05/11 11:47:26;;;;;;;6.33;2.70;;;;;;;;;;5033972;28;20424;-75
2022/05/11 11:49:53;;;;;;;4.17;3.67;;;;;;;;;;5033979;28;20404;-76
2022/05/11 11:52:34;;;;;;;4.60;3.40;;;;;;;;;;5050256;28;20419;-76
2022/05/11 11:55:00;;;;;;;5.13;3.50;;;;;;;;;;5052236;28;20794;-76
2022/05/11 11:57:26;;;;;;;16.67;3.47;;;;;;;;;;5054128;28;20412;-78
2022/05/11 11:59:58;;;;;;;4.83;3.40;;;;;;;;;;5053852;28;20951;-78
2022/05/11 12:02:29;;;;;;;5.63;3.27;;;;;;;;;;5053749;28;20432;-78
2022/05/11 12:04:58;;;;;;;4.17;3.43;;;;;;;;;;5053280;28;20476;-77
2022/05/11 12:16:00;;;;;;;5.87;3.20;;;;;;;;;;5053560;28;20502;-78
2022/05/11 12:18:32;;;;;;;4.00;2.90;;;;;;;;;;5053178;28;20470;-77
2022/05/11 12:20:58;;;;;;;7.90;3.00;;;;;;;;;;5053391;28;20470;-76
2022/05/11 12:23:30;;;;;;;5.73;3.33;;;;;;;;;;5052997;28;20481;-78
2022/05/11 12:26:00;;;;;;;5.77;3.13;;;;;;;;;;5053145;28;20470;-78
2022/05/11 12:28:35;;;;;;;6.90;3.00;;;;;;;;;;5053117;28;20430;-78
2022/05/11 12:31:01;;;;;;;6.57;3.20;;;;;;;;;;5053226;28;20418;-75
2022/05/11 12:33:30;;;;;;;6.60;3.10;;;;;;;;;;5052736;28;20415;-75
2022/05/11 12:35:56;;;;;;;7.40;3.60;;;;;;;;;;5052887;28;20458;-76
2022/05/11 12:38:32;;;;;;;6.43;3.00;;;;;;;;;;5052908;28;20432;-76
2022/05/11 12:40:59;;;;;;;3.03;2.30;;;;;;;;;;5052950;28;20815;-76
2022/05/11 12:43:28;;;;;;;5.23;2.93;;;;;;;;;;5052381;28;20410;-75
2022/05/11 12:45:56;;;;;;;4.80;2.70;;;;;;;;;;5053088;28;20498;-76
2022/05/11 12:48:42;;;;;;;7.20;2.70;;;;;;;;;;5052566;28;20907;-76
2022/05/11 12:51:14;;;;;;;3.30;2.40;;;;;;;;;;5052872;28;20424;-75
2022/05/11 12:53:48;;;;;;;8.33;2.60;;;;;;;;;;5052334;28;20464;-76
2022/05/11 12:56:19;;;;;;;9.83;2.73;;;;;;;;;;5034957;28;20476;-76
2022/05/11 12:58:50;;;;;;;3.90;2.70;;;;;;;;;;5052710;28;20458;-75
2022/05/11 13:01:18;;;;;;;2.17;1.83;;;;;;;;;;5052741;28;20991;-75
2022/05/11 13:03:45;;;;;;;6.37;2.77;;;;;;;;;;5052336;28;20437;-75
2022/05/11 13:06:11;;;;;;;7.70;2.80;;;;;;;;;;5052772;28;20410;-75
2022/05/11 13:08:42;;;;;;;3.23;2.67;;;;;;;;;;5052617;28;20477;-75
2022/05/11 13:11:08;;;;;;;8.90;3.00;;;;;;;;;;5052723;28;20415;-75
2022/05/11 13:13:35;;;;;;;12.13;2.77;;;;;;;;;;5052476;28;20553;-76
2022/05/11 13:16:06;;;;;;;6.57;2.60;;;;;;;;;;5052798;28;20418;-75
2022/05/11 13:18:32;;;;;;;11.00;2.27;;;;;;;;;;5052515;28;20450;-75
2022/05/11 13:21:00;;;;;;;7.17;2.27;;;;;;;;;;5052545;28;20467;-76
2022/05/11 13:23:33;;;;;;;11.53;2.63;;;;;;;;;;5052238;28;20873;-75
2022/05/11 13:26:00;;;;;;;7.00;2.10;;;;;;;;;;5052447;28;20400;-75
2022/05/11 13:28:38;;;;;;;9.73;2.40;;;;;;;;;;5052299;28;20421;-75
2022/05/11 13:31:24;;;;;;;7.73;2.20;;;;;;;;;;5052278;28;20742;-75
2022/05/11 13:33:50;;;;;;;8.50;2.47;;;;;;;;;;5052091;28;20800;-75
2022/05/11 13:36:24;;;;;;;6.97;1.83;;;;;;;;;;5052561;28;20413;-75
2022/05/11 13:38:52;;;;;;;6.43;2.20;;;;;;;;;;5052394;28;20439;-76
2022/05/11 13:41:22;;;;;;;6.30;1.87;;;;;;;;;;5052161;28;20460;-75
2022/05/11 13:43:50;;;;;;;4.70;1.97;;;;;;;;;;5052024;28;20425;-75
2022/05/11 13:46:35;;;;;;;6.33;2.00;;;;;;;;;;5052403;28;20408;-76
2022/05/11 13:49:25;;;;;;;13.53;2.13;;;;;;;;;;5052086;28;20405;-75
2022/05/11 13:51:51;;;;;;;8.53;2.10;;;;;;;;;;5052178;28;20401;-75
2022/05/11 13:54:20;;;;;;;3.10;1.70;;;;;;;;;;5051800;28;20447;-75
2022/05/11 13:56:57;;;;;;;5.60;1.97;;;;;;;;;;5052153;28;20497;-75
2022/05/11 13:59:24;;;;;;;7.50;2.40;;;;;;;;;;5053919;28;20420;-77
2022/05/11 14:01:50;;;;;;;17.67;2.50;;;;;;;;;;5056084;28;20408;-75
2022/05/11 14:04:23;;;;;;;4.30;1.70;;;;;;;;;;5055779;28;20429;-75
2022/05/11 14:07:01;;;;;;;7.60;2.10;;;;;;;;;;5055952;28;20397;-75
2022/05/11 14:09:27;;;;;;;19.13;2.77;;;;;;;;;;5055885;28;20959;-75
2022/05/11 14:11:53;;;;;;;7.10;2.27;;;;;;;;;;5055956;28;20413;-75
2022/05/11 14:14:19;;;;;;;6.27;2.23;;;;;;;;;;5055438;28;20417;-75
2022/05/11 14:16:45;;;;;;;5.37;2.50;;;;;;;;;;5055896;28;20432;-75
2022/05/11 14:19:11;;;;;;;10.80;2.33;;;;;;;;;;5037955;28;20408;-74
2022/05/11 14:21:43;;;;;;;11.60;2.73;;;;;;;;;;5055630;28;21213;-76
2022/05/11 14:24:09;;;;;;;5.97;2.40;;;;;;;;;;5037288;28;20844;-75
2022/05/11 14:26:35;;;;;;;11.90;3.13;;;;;;;;;;5055539;28;21078;-75
2022/05/11 14:29:01;;;;;;;7.43;2.30;;;;;;;;;;5055535;28;20432;-75
2022/05/11 14:31:27;;;;;;;6.33;2.17;;;;;;;;;;5055438;28;20449;-75
2022/05/11 14:33:54;;;;;;;2.50;1.73;;;;;;;;;;5037061;28;20476;-75
2022/05/11 14:36:20;;;;;;;7.93;1.97;;;;;;;;;;5055559;28;20424;-74
2022/05/11 14:38:46;;;;;;;3.80;1.87;;;;;;;;;;5055433;28;20425;-76
2022/05/11 14:41:12;;;;;;;8.83;2.67;;;;;;;;;;5055488;28;20550;-75
2022/05/11 14:43:39;;;;;;;7.00;2.40;;;;;;;;;;5054742;28;20443;-75
2022/05/11 14:46:05;;;;;;;5.90;2.00;;;;;;;;;;5055299;28;20436;-75
2022/05/11 14:48:36;;;;;;;4.43;2.17;;;;;;;;;;5037212;28;20447;-75
2022/05/11 14:51:03;;;;;;;3.97;2.10;;;;;;;;;;5055114;28;20836;-75
2022/05/11 14:53:29;;;;;;;10.10;2.40;;;;;;;;;;5054484;28;20405;-75
2022/05/11 14:55:55;;;;;;;5.70;2.80;;;;;;;;;;5054982;28;20426;-75
2022/05/11 15:04:03;;;;;;;8.23;2.07;;;;;;;;;;5054337;28;20540;-74
2022/05/11 15:06:31;;;;;;;4.90;2.10;;;;;;;;;;5055035;28;20768;-75
2022/05/11 15:08:57;;;;;;;8.63;2.73;;;;;;;;;;5054611;28;20406;-75
2022/05/11 15:14:08;;;;;;;3.60;2.17;;;;;;;;;;5054578;28;20968;-75
2022/05/11 15:16:34;;;;;;;3.70;2.03;;;;;;;;;;5056432;28;20420;-75
2022/05/11 15:19:00;;;;;;;5.13;2.10;;;;;;;;;;5054940;28;20751;-75
2022/05/11 15:21:26;;;;;;;4.13;2.50;;;;;;;;;;5054458;28;20572;-75
2022/05/11 15:23:52;;;;;;;11.50;2.23;;;;;;;;;;5053931;28;20517;-75
2022/05/11 15:26:18;;;;;;;7.50;2.43;;;;;;;;;;5054078;28;20425;-75
2022/05/11 15:28:44;;;;;;;7.07;2.60;;;;;;;;;;5058894;28;20445;-74
2022/05/11 15:31:10;;;;;;;8.30;2.50;;;;;;;;;;5058935;28;20417;-75
2022/05/11 15:33:37;;;;;;;3.87;2.00;;;;;;;;;;5059206;28;20436;-75
2022/05/11 15:36:03;;;;;;;7.37;2.80;;;;;;;;;;5059522;28;20421;-75
2022/05/11 15:38:29;;;;;;;8.40;2.00;;;;;;;;;;5056382;28;20485;-75
2022/05/11 15:40:55;;;;;;;7.63;1.90;;;;;;;;;;5057599;28;20941;-75